Hamnavoe — VSTY7 — position and weather

sailwx.info

Track history (hours):
 
Tides and Currents Weather Stations Pressure Air Temp Water Temp Dewpoint Dewpoint Depression Visibility Wind Speed Wind Dir Waves Ship Positions

Hamnavoe

Operator: NorthLink Orkey & Shetland Ferries Ltd

Last reported at 2014-Oct-23 15:33 UTC. Time now 2014-Oct-23 15:57 UTC.
Position N 58°58' W 003°18'.

Length 112 m; draft 4.4 m.

Type: Ship. MMSI: 235449000.

Date/timePositionNaut miles runAvg speedWind from/ knotsBaromVisibWave heightAir tempDewpointWater temp
2014-Oct-23 15:33N 58°58' W 003°18'0 0.0
2014-Oct-23 14:33N 58°58' W 003°18'0 0.0
2014-Oct-23 13:33N 58°58' W 003°18'0 0.0
2014-Oct-23 12:33N 58°58' W 003°18'0 0.0
2014-Oct-23 11:33N 58°58' W 003°18'0 0.0
2014-Oct-23 10:33N 58°58' W 003°18'0 0.0
2014-Oct-23 09:33N 58°58' W 003°18'10 9.5
2014-Oct-23 08:33N 58°50' W 003°29'4 2.0
2014-Oct-23 06:33N 58°46' W 003°29'1312.6
2014-Oct-23 05:33N 58°58' W 003°18'0 0.3
2014-Oct-23 04:33N 58°58' W 003°18'0 0.0
2014-Oct-23 03:30N 58°58' W 003°18'0 0.0
2014-Oct-23 02:33N 58°58' W 003°18'0 0.0
2014-Oct-23 01:33N 58°58' W 003°18'0 0.0
2014-Oct-23 00:33N 58°58' W 003°18'0 0.0
2014-Oct-22 23:33N 58°58' W 003°18'0 0.0
2014-Oct-22 22:33N 58°58' W 003°18'0 0.0
2014-Oct-22 21:33N 58°58' W 003°18'0 0.0
2014-Oct-22 20:33N 58°58' W 003°18'0 0.1
2014-Oct-22 19:33N 58°58' W 003°18'1514.6
2014-Oct-22 18:32N 58°44' W 003°30'8 7.1
2014-Oct-22 17:27N 58°37' W 003°32'1314.0
2014-Oct-22 16:33N 58°49' W 003°30'1110.0
2014-Oct-22 15:30N 58°58' W 003°18'0 0.0
2014-Oct-22 14:33N 58°58' W 003°18'0 0.0
2014-Oct-22 13:24N 58°58' W 003°18'0 0.0
2014-Oct-22 12:24N 58°58' W 003°18'1 0.5
2014-Oct-22 09:33N 58°57' W 003°16'1414.2
2014-Oct-22 08:33N 58°43' W 003°20'7 3.5
2014-Oct-22 06:33N 58°46' W 003°32'1414.1
2014-Oct-22 05:33N 58°58' W 003°18'0 0.1
2014-Oct-22 04:25N 58°58' W 003°18'0 0.0
2014-Oct-22 01:25N 58°58' W 003°18'0 0.0
2014-Oct-22 00:04N 58°58' W 003°18'0 0.0
2014-Oct-21 23:28N 58°58' W 003°18'0 0.0
2014-Oct-21 22:31N 58°58' W 003°18'0 0.0
2014-Oct-21 21:31N 58°58' W 003°18'0 0.0
2014-Oct-21 20:31N 58°58' W 003°18'0 0.0
2014-Oct-21 19:28N 58°58' W 003°18'0 0.0
2014-Oct-21 18:31N 58°58' W 003°18'0 0.0
2014-Oct-21 17:31N 58°58' W 003°18'0 0.0
2014-Oct-21 16:31N 58°58' W 003°18'0 0.0
2014-Oct-21 15:28N 58°58' W 003°18'0 0.0
2014-Oct-21 14:28N 58°58' W 003°18'0 0.0
2014-Oct-21 13:28N 58°58' W 003°18'0 0.0
2014-Oct-21 12:31N 58°58' W 003°18'0 0.0
2014-Oct-21 11:28N 58°58' W 003°18'0 0.0
2014-Oct-21 10:28N 58°58' W 003°18'1 1.2
2014-Oct-21 09:33N 58°57' W 003°17'1413.3
2014-Oct-21 08:32N 58°43' W 003°18'1010.2
2014-Oct-21 07:33N 58°37' W 003°32'6 5.9
2014-Oct-21 06:33N 58°42' W 003°30'1615.7
2014-Oct-21 05:33N 58°57' W 003°18'1 0.9
2014-Oct-21 04:28N 58°58' W 003°18'0 0.0
2014-Oct-21 03:28N 58°58' W 003°18'0 0.0
2014-Oct-21 02:28N 58°58' W 003°18'0 0.0
2014-Oct-21 01:28N 58°58' W 003°18'0 0.0
2014-Oct-21 00:10N 58°58' W 003°18'0 0.0
2014-Oct-20 23:28N 58°58' W 003°18'0 0.0
2014-Oct-20 22:22N 58°58' W 003°18'0 0.0
2014-Oct-20 21:22N 58°58' W 003°18'0 0.0
2014-Oct-20 20:28N 58°58' W 003°18'0 0.0
2014-Oct-20 19:28N 58°58' W 003°18'1212.8
2014-Oct-20 18:33N 58°47' W 003°28'0 0.2
2014-Oct-20 16:33N 58°47' W 003°29'1211.9
2014-Oct-20 15:33N 58°58' W 003°18'0 0.0
2014-Oct-20 14:33N 58°58' W 003°18'0 0.0
2014-Oct-20 13:33N 58°58' W 003°18'1514.9
2014-Oct-20 12:33N 58°44' W 003°30'4 3.1
2014-Oct-20 11:09N 58°40' W 003°31'1117.8
2014-Oct-20 10:33N 58°50' W 003°29'9 9.0
2014-Oct-20 09:31N 58°58' W 003°18'8 8.0
2014-Oct-20 08:33N 58°52' W 003°28'9 4.6
2014-Oct-20 06:33N 58°43' W 003°30'1515.1
2014-Oct-20 05:33N 58°57' W 003°18'1 1.0
2014-Oct-20 04:31N 58°58' W 003°18'0 0.0
2014-Oct-20 03:19N 58°58' W 003°18'0 0.0
2014-Oct-20 02:28N 58°58' W 003°18'0 0.0
2014-Oct-20 00:28N 58°58' W 003°18'0 0.0
2014-Oct-19 23:31N 58°58' W 003°18'0 0.0
2014-Oct-19 22:31N 58°58' W 003°18'0 0.0
2014-Oct-19 21:31N 58°58' W 003°18'0 0.0
2014-Oct-19 20:31N 58°58' W 003°18'1 0.9
2014-Oct-19 19:33N 58°57' W 003°17'1413.6
2014-Oct-19 18:34N 58°43' W 003°18'10 8.9
2014-Oct-19 17:25N 58°37' W 003°32'1113.0
2014-Oct-19 16:33N 58°48' W 003°29'1211.8
2014-Oct-19 15:34N 58°58' W 003°18'0 0.0
2014-Oct-19 14:34N 58°58' W 003°18'0 0.0
2014-Oct-19 13:34N 58°58' W 003°18'0 0.0
2014-Oct-19 12:33N 58°58' W 003°18'1010.5
2014-Oct-19 11:33N 58°49' W 003°29'13 9.8
2014-Oct-19 10:16N 58°37' W 003°32'2 1.7
2014-Oct-19 09:17N 58°38' W 003°31'1418.4
2014-Oct-19 08:33N 58°52' W 003°28'8 7.8
2014-Oct-19 07:31N 58°58' W 003°18'0 0.0
2014-Oct-19 06:31N 58°58' W 003°18'0 0.0
2014-Oct-19 05:31N 58°58' W 003°18'0 0.0
2014-Oct-19 04:25N 58°58' W 003°18'0 0.0
2014-Oct-18 20:07N 58°58' W 003°18'0 0.0
2014-Oct-18 19:31N 58°58' W 003°18'1212.7
2014-Oct-18 18:34N 58°47' W 003°29'0 0.1
2014-Oct-18 16:34N 58°47' W 003°29'1211.9
2014-Oct-18 15:33N 58°58' W 003°18'0 0.0
2014-Oct-18 14:22N 58°58' W 003°18'0 0.0
2014-Oct-18 13:31N 58°58' W 003°18'0 0.0
2014-Oct-18 12:31N 58°58' W 003°18'1111.5
2014-Oct-18 11:33N 58°48' W 003°29'12 9.1
2014-Oct-18 10:15N 58°37' W 003°32'0 0.0
2014-Oct-18 09:33N 58°37' W 003°32'1616.7
2014-Oct-18 08:33N 58°53' W 003°28'7 6.9
2014-Oct-18 07:32N 58°58' W 003°18'0 0.0
2014-Oct-18 06:32N 58°58' W 003°18'0 0.0
2014-Oct-18 05:32N 58°58' W 003°18'0 0.0
2014-Oct-18 04:32N 58°58' W 003°18'0 0.0
2014-Oct-18 03:32N 58°58' W 003°18'0 0.0
2014-Oct-18 02:32N 58°58' W 003°18'0 0.0
2014-Oct-18 01:32N 58°58' W 003°18'0 0.0
2014-Oct-18 00:32N 58°58' W 003°18'0 0.0
2014-Oct-17 23:32N 58°58' W 003°18'0 0.0
2014-Oct-17 22:32N 58°58' W 003°18'0 0.0
2014-Oct-17 21:32N 58°58' W 003°18'0 0.0
2014-Oct-17 20:32N 58°58' W 003°18'0 0.0
2014-Oct-17 19:32N 58°58' W 003°18'1010.2
2014-Oct-17 18:34N 58°50' W 003°28'1312.9
2014-Oct-17 17:33N 58°37' W 003°32'1010.1
2014-Oct-17 16:33N 58°47' W 003°29'1312.8
2014-Oct-17 15:33N 58°58' W 003°18'0 0.0
2014-Oct-17 14:31N 58°58' W 003°18'0 0.0
2014-Oct-17 13:33N 58°58' W 003°18'1515.3
2014-Oct-17 12:33N 58°44' W 003°30'7 7.4
2014-Oct-17 11:33N 58°37' W 003°32'1414.2
2014-Oct-17 10:33N 58°51' W 003°28'9 8.8
2014-Oct-17 09:33N 58°58' W 003°18'8 7.6
2014-Oct-17 08:33N 58°52' W 003°28'1613.9
2014-Oct-17 07:25N 58°37' W 003°32'6 6.8
2014-Oct-17 06:33N 58°42' W 003°30'1616.3
2014-Oct-17 05:33N 58°57' W 003°18'1 0.5
2014-Oct-17 04:20N 58°58' W 003°18'0 0.0
2014-Oct-17 03:14N 58°58' W 003°18'0 0.0
2014-Oct-17 02:32N 58°58' W 003°18'0 0.0
2014-Oct-17 01:32N 58°58' W 003°18'0 0.0
2014-Oct-17 00:26N 58°58' W 003°18'0 0.0
2014-Oct-16 23:26N 58°58' W 003°18'0 0.0
2014-Oct-16 22:14N 58°58' W 003°18'0 0.0
2014-Oct-16 21:20N 58°58' W 003°18'0 0.0
2014-Oct-16 20:26N 58°58' W 003°18'0 0.0
2014-Oct-16 19:32N 58°58' W 003°18'1312.9
2014-Oct-16 18:33N 58°47' W 003°29'9 5.7
2014-Oct-16 17:04N 58°38' W 003°31'918.4
2014-Oct-16 16:33N 58°47' W 003°29'12 4.8
2014-Oct-16 14:05N 58°58' W 003°18'0 0.0
2014-Oct-16 13:29N 58°58' W 003°18'0 0.0
2014-Oct-16 09:15N 58°58' W 003°18'812.0
2014-Oct-16 08:33N 58°52' W 003°28'1511.1
2014-Oct-16 07:12N 58°37' W 003°32'710.7
2014-Oct-16 06:34N 58°43' W 003°30'1615.7
2014-Oct-16 05:33N 58°58' W 003°18'0 0.1
2014-Oct-16 03:13N 58°58' W 003°18'0 0.0
2014-Oct-16 02:25N 58°58' W 003°18'0 0.0
2014-Oct-16 01:31N 58°58' W 003°18'0 0.0
2014-Oct-15 23:31N 58°58' W 003°18'0 0.0
2014-Oct-15 22:31N 58°58' W 003°18'0 0.0
2014-Oct-15 19:23N 58°58' W 003°18'1214.1
2014-Oct-15 18:33N 58°48' W 003°29'1 0.3
2014-Oct-15 16:33N 58°47' W 003°29'12 3.6
2014-Oct-15 13:14N 58°58' W 003°18'0 0.0
2014-Oct-15 12:33N 58°58' W 003°18'0 0.0
2014-Oct-15 11:33N 58°58' W 003°18'0 0.0
2014-Oct-15 10:33N 58°58' W 003°18'0 0.0
2014-Oct-15 09:33N 58°58' W 003°18'8 8.3
2014-Oct-15 08:33N 58°51' W 003°28'10 5.2
2014-Oct-15 06:33N 58°41' W 003°31'1717.1
2014-Oct-15 05:33N 58°57' W 003°18'1 0.9
2014-Oct-15 04:22N 58°58' W 003°18'0 0.0
2014-Oct-15 03:22N 58°58' W 003°18'0 0.0
2014-Oct-15 02:28N 58°58' W 003°18'0 0.0
2014-Oct-15 01:04N 58°58' W 003°18'0 0.0
2014-Oct-15 00:22N 58°58' W 003°18'0 0.0
2014-Oct-14 23:22N 58°58' W 003°18'0 0.0
2014-Oct-14 22:22N 58°58' W 003°18'0 0.0
2014-Oct-14 21:28N 58°58' W 003°18'0 0.0
2014-Oct-14 20:28N 58°58' W 003°18'0 0.0
2014-Oct-14 19:28N 58°58' W 003°18'1011.4
2014-Oct-14 18:33N 58°49' W 003°29'2 1.2
2014-Oct-14 16:33N 58°47' W 003°29'13 1.8
2014-Oct-14 09:26N 58°58' W 003°18'7 8.5
2014-Oct-14 08:33N 58°53' W 003°28'11 5.7
2014-Oct-14 06:33N 58°41' W 003°31'1716.8
2014-Oct-14 05:33N 58°57' W 003°18'1 0.9
2014-Oct-14 04:24N 58°58' W 003°18'0 0.0
2014-Oct-13 19:32N 58°58' W 003°18'1414.2
2014-Oct-13 18:33N 58°45' W 003°30'0 0.0
2014-Oct-13 16:33N 58°45' W 003°30'  
Track history (hours):
 
Tides and Currents Weather Stations Pressure Air Temp Water Temp Dewpoint Dewpoint Depression Visibility Wind Speed Wind Dir Waves Ship Positions

Hamnavoe

Operator: NorthLink Orkey & Shetland Ferries Ltd

Last reported at 2014-Oct-23 15:33 UTC. Time now 2014-Oct-23 15:57 UTC.
Position N 58°58' W 003°18'.

Length 112 m; draft 4.4 m.

Type: Ship. MMSI: 235449000.

Date/timePositionNaut miles runAvg speedWind from/ knotsBaromVisibWave heightAir tempDewpointWater temp
2014-Oct-23 15:33N 58°58' W 003°18'0 0.0
2014-Oct-23 14:33N 58°58' W 003°18'0 0.0
2014-Oct-23 13:33N 58°58' W 003°18'0 0.0
2014-Oct-23 12:33N 58°58' W 003°18'0 0.0
2014-Oct-23 11:33N 58°58' W 003°18'0 0.0
2014-Oct-23 10:33N 58°58' W 003°18'0 0.0
2014-Oct-23 09:33N 58°58' W 003°18'10 9.5
2014-Oct-23 08:33N 58°50' W 003°29'4 2.0
2014-Oct-23 06:33N 58°46' W 003°29'1312.6
2014-Oct-23 05:33N 58°58' W 003°18'0 0.3
2014-Oct-23 04:33N 58°58' W 003°18'0 0.0
2014-Oct-23 03:30N 58°58' W 003°18'0 0.0
2014-Oct-23 02:33N 58°58' W 003°18'0 0.0
2014-Oct-23 01:33N 58°58' W 003°18'0 0.0
2014-Oct-23 00:33N 58°58' W 003°18'0 0.0
2014-Oct-22 23:33N 58°58' W 003°18'0 0.0
2014-Oct-22 22:33N 58°58' W 003°18'0 0.0
2014-Oct-22 21:33N 58°58' W 003°18'0 0.0
2014-Oct-22 20:33N 58°58' W 003°18'0 0.1
2014-Oct-22 19:33N 58°58' W 003°18'1514.6
2014-Oct-22 18:32N 58°44' W 003°30'8 7.1
2014-Oct-22 17:27N 58°37' W 003°32'1314.0
2014-Oct-22 16:33N 58°49' W 003°30'1110.0
2014-Oct-22 15:30N 58°58' W 003°18'0 0.0
2014-Oct-22 14:33N 58°58' W 003°18'0 0.0
2014-Oct-22 13:24N 58°58' W 003°18'0 0.0
2014-Oct-22 12:24N 58°58' W 003°18'1 0.5
2014-Oct-22 09:33N 58°57' W 003°16'1414.2
2014-Oct-22 08:33N 58°43' W 003°20'7 3.5
2014-Oct-22 06:33N 58°46' W 003°32'1414.1
2014-Oct-22 05:33N 58°58' W 003°18'0 0.1
2014-Oct-22 04:25N 58°58' W 003°18'0 0.0
2014-Oct-22 01:25N 58°58' W 003°18'0 0.0
2014-Oct-22 00:04N 58°58' W 003°18'0 0.0
2014-Oct-21 23:28N 58°58' W 003°18'0 0.0
2014-Oct-21 22:31N 58°58' W 003°18'0 0.0
2014-Oct-21 21:31N 58°58' W 003°18'0 0.0
2014-Oct-21 20:31N 58°58' W 003°18'0 0.0
2014-Oct-21 19:28N 58°58' W 003°18'0 0.0
2014-Oct-21 18:31N 58°58' W 003°18'0 0.0
2014-Oct-21 17:31N 58°58' W 003°18'0 0.0
2014-Oct-21 16:31N 58°58' W 003°18'0 0.0
2014-Oct-21 15:28N 58°58' W 003°18'0 0.0
2014-Oct-21 14:28N 58°58' W 003°18'0 0.0
2014-Oct-21 13:28N 58°58' W 003°18'0 0.0
2014-Oct-21 12:31N 58°58' W 003°18'0 0.0
2014-Oct-21 11:28N 58°58' W 003°18'0 0.0
2014-Oct-21 10:28N 58°58' W 003°18'1 1.2
2014-Oct-21 09:33N 58°57' W 003°17'1413.3
2014-Oct-21 08:32N 58°43' W 003°18'1010.2
2014-Oct-21 07:33N 58°37' W 003°32'6 5.9
2014-Oct-21 06:33N 58°42' W 003°30'1615.7
2014-Oct-21 05:33N 58°57' W 003°18'1 0.9
2014-Oct-21 04:28N 58°58' W 003°18'0 0.0
2014-Oct-21 03:28N 58°58' W 003°18'0 0.0
2014-Oct-21 02:28N 58°58' W 003°18'0 0.0
2014-Oct-21 01:28N 58°58' W 003°18'0 0.0
2014-Oct-21 00:10N 58°58' W 003°18'0 0.0
2014-Oct-20 23:28N 58°58' W 003°18'0 0.0
2014-Oct-20 22:22N 58°58' W 003°18'0 0.0
2014-Oct-20 21:22N 58°58' W 003°18'0 0.0
2014-Oct-20 20:28N 58°58' W 003°18'0 0.0
2014-Oct-20 19:28N 58°58' W 003°18'1212.8
2014-Oct-20 18:33N 58°47' W 003°28'0 0.2
2014-Oct-20 16:33N 58°47' W 003°29'1211.9
2014-Oct-20 15:33N 58°58' W 003°18'0 0.0
2014-Oct-20 14:33N 58°58' W 003°18'0 0.0
2014-Oct-20 13:33N 58°58' W 003°18'1514.9
2014-Oct-20 12:33N 58°44' W 003°30'4 3.1
2014-Oct-20 11:09N 58°40' W 003°31'1117.8
2014-Oct-20 10:33N 58°50' W 003°29'9 9.0
2014-Oct-20 09:31N 58°58' W 003°18'8 8.0
2014-Oct-20 08:33N 58°52' W 003°28'9 4.6
2014-Oct-20 06:33N 58°43' W 003°30'1515.1
2014-Oct-20 05:33N 58°57' W 003°18'1 1.0
2014-Oct-20 04:31N 58°58' W 003°18'0 0.0
2014-Oct-20 03:19N 58°58' W 003°18'0 0.0
2014-Oct-20 02:28N 58°58' W 003°18'0 0.0
2014-Oct-20 00:28N 58°58' W 003°18'0 0.0
2014-Oct-19 23:31N 58°58' W 003°18'0 0.0
2014-Oct-19 22:31N 58°58' W 003°18'0 0.0
2014-Oct-19 21:31N 58°58' W 003°18'0 0.0
2014-Oct-19 20:31N 58°58' W 003°18'1 0.9
2014-Oct-19 19:33N 58°57' W 003°17'1413.6
2014-Oct-19 18:34N 58°43' W 003°18'10 8.9
2014-Oct-19 17:25N 58°37' W 003°32'1113.0
2014-Oct-19 16:33N 58°48' W 003°29'1211.8
2014-Oct-19 15:34N 58°58' W 003°18'0 0.0
2014-Oct-19 14:34N 58°58' W 003°18'0 0.0
2014-Oct-19 13:34N 58°58' W 003°18'0 0.0
2014-Oct-19 12:33N 58°58' W 003°18'1010.5
2014-Oct-19 11:33N 58°49' W 003°29'13 9.8
2014-Oct-19 10:16N 58°37' W 003°32'2 1.7
2014-Oct-19 09:17N 58°38' W 003°31'1418.4
2014-Oct-19 08:33N 58°52' W 003°28'8 7.8
2014-Oct-19 07:31N 58°58' W 003°18'0 0.0
2014-Oct-19 06:31N 58°58' W 003°18'0 0.0
2014-Oct-19 05:31N 58°58' W 003°18'0 0.0
2014-Oct-19 04:25N 58°58' W 003°18'0 0.0
2014-Oct-18 20:07N 58°58' W 003°18'0 0.0
2014-Oct-18 19:31N 58°58' W 003°18'1212.7
2014-Oct-18 18:34N 58°47' W 003°29'0 0.1
2014-Oct-18 16:34N 58°47' W 003°29'1211.9
2014-Oct-18 15:33N 58°58' W 003°18'0 0.0
2014-Oct-18 14:22N 58°58' W 003°18'0 0.0
2014-Oct-18 13:31N 58°58' W 003°18'0 0.0
2014-Oct-18 12:31N 58°58' W 003°18'1111.5
2014-Oct-18 11:33N 58°48' W 003°29'12 9.1
2014-Oct-18 10:15N 58°37' W 003°32'0 0.0
2014-Oct-18 09:33N 58°37' W 003°32'1616.7
2014-Oct-18 08:33N 58°53' W 003°28'7 6.9
2014-Oct-18 07:32N 58°58' W 003°18'0 0.0
2014-Oct-18 06:32N 58°58' W 003°18'0 0.0
2014-Oct-18 05:32N 58°58' W 003°18'0 0.0
2014-Oct-18 04:32N 58°58' W 003°18'0 0.0
2014-Oct-18 03:32N 58°58' W 003°18'0 0.0
2014-Oct-18 02:32N 58°58' W 003°18'0 0.0
2014-Oct-18 01:32N 58°58' W 003°18'0 0.0
2014-Oct-18 00:32N 58°58' W 003°18'0 0.0
2014-Oct-17 23:32N 58°58' W 003°18'0 0.0
2014-Oct-17 22:32N 58°58' W 003°18'0 0.0
2014-Oct-17 21:32N 58°58' W 003°18'0 0.0
2014-Oct-17 20:32N 58°58' W 003°18'0 0.0
2014-Oct-17 19:32N 58°58' W 003°18'1010.2
2014-Oct-17 18:34N 58°50' W 003°28'1312.9
2014-Oct-17 17:33N 58°37' W 003°32'1010.1
2014-Oct-17 16:33N 58°47' W 003°29'1312.8
2014-Oct-17 15:33N 58°58' W 003°18'0 0.0
2014-Oct-17 14:31N 58°58' W 003°18'0 0.0
2014-Oct-17 13:33N 58°58' W 003°18'1515.3
2014-Oct-17 12:33N 58°44' W 003°30'7 7.4
2014-Oct-17 11:33N 58°37' W 003°32'1414.2
2014-Oct-17 10:33N 58°51' W 003°28'9 8.8
2014-Oct-17 09:33N 58°58' W 003°18'8 7.6
2014-Oct-17 08:33N 58°52' W 003°28'1613.9
2014-Oct-17 07:25N 58°37' W 003°32'6 6.8
2014-Oct-17 06:33N 58°42' W 003°30'1616.3
2014-Oct-17 05:33N 58°57' W 003°18'1 0.5
2014-Oct-17 04:20N 58°58' W 003°18'0 0.0
2014-Oct-17 03:14N 58°58' W 003°18'0 0.0
2014-Oct-17 02:32N 58°58' W 003°18'0 0.0
2014-Oct-17 01:32N 58°58' W 003°18'0 0.0
2014-Oct-17 00:26N 58°58' W 003°18'0 0.0
2014-Oct-16 23:26N 58°58' W 003°18'0 0.0
2014-Oct-16 22:14N 58°58' W 003°18'0 0.0
2014-Oct-16 21:20N 58°58' W 003°18'0 0.0
2014-Oct-16 20:26N 58°58' W 003°18'0 0.0
2014-Oct-16 19:32N 58°58' W 003°18'1312.9
2014-Oct-16 18:33N 58°47' W 003°29'9 5.7
2014-Oct-16 17:04N 58°38' W 003°31'918.4
2014-Oct-16 16:33N 58°47' W 003°29'12 4.8
2014-Oct-16 14:05N 58°58' W 003°18'0 0.0
2014-Oct-16 13:29N 58°58' W 003°18'0 0.0
2014-Oct-16 09:15N 58°58' W 003°18'812.0
2014-Oct-16 08:33N 58°52' W 003°28'1511.1
2014-Oct-16 07:12N 58°37' W 003°32'710.7
2014-Oct-16 06:34N 58°43' W 003°30'1615.7
2014-Oct-16 05:33N 58°58' W 003°18'0 0.1
2014-Oct-16 03:13N 58°58' W 003°18'0 0.0
2014-Oct-16 02:25N 58°58' W 003°18'0 0.0
2014-Oct-16 01:31N 58°58' W 003°18'0 0.0
2014-Oct-15 23:31N 58°58' W 003°18'0 0.0
2014-Oct-15 22:31N 58°58' W 003°18'0 0.0
2014-Oct-15 19:23N 58°58' W 003°18'1214.1
2014-Oct-15 18:33N 58°48' W 003°29'1 0.3
2014-Oct-15 16:33N 58°47' W 003°29'12 3.6
2014-Oct-15 13:14N 58°58' W 003°18'0 0.0
2014-Oct-15 12:33N 58°58' W 003°18'0 0.0
2014-Oct-15 11:33N 58°58' W 003°18'0 0.0
2014-Oct-15 10:33N 58°58' W 003°18'0 0.0
2014-Oct-15 09:33N 58°58' W 003°18'8 8.3
2014-Oct-15 08:33N 58°51' W 003°28'10 5.2
2014-Oct-15 06:33N 58°41' W 003°31'1717.1
2014-Oct-15 05:33N 58°57' W 003°18'1 0.9
2014-Oct-15 04:22N 58°58' W 003°18'0 0.0
2014-Oct-15 03:22N 58°58' W 003°18'0 0.0
2014-Oct-15 02:28N 58°58' W 003°18'0 0.0
2014-Oct-15 01:04N 58°58' W 003°18'0 0.0
2014-Oct-15 00:22N 58°58' W 003°18'0 0.0
2014-Oct-14 23:22N 58°58' W 003°18'0 0.0
2014-Oct-14 22:22N 58°58' W 003°18'0 0.0
2014-Oct-14 21:28N 58°58' W 003°18'0 0.0
2014-Oct-14 20:28N 58°58' W 003°18'0 0.0
2014-Oct-14 19:28N 58°58' W 003°18'1011.4
2014-Oct-14 18:33N 58°49' W 003°29'2 1.2
2014-Oct-14 16:33N 58°47' W 003°29'13 1.8
2014-Oct-14 09:26N 58°58' W 003°18'7 8.5
2014-Oct-14 08:33N 58°53' W 003°28'11 5.7
2014-Oct-14 06:33N 58°41' W 003°31'1716.8
2014-Oct-14 05:33N 58°57' W 003°18'1 0.9
2014-Oct-14 04:24N 58°58' W 003°18'0 0.0
2014-Oct-13 19:32N 58°58' W 003°18'1414.2
2014-Oct-13 18:33N 58°45' W 003°30'0 0.0
2014-Oct-13 16:33N 58°45' W 003°30'  

Dump ship's entire track history